LFKB

Bastia - Poretta Airport

Airport
ICAO code
LFKB
IATA Code
BIA
Summary
ICAO Region
EUR
ICAO Territory
Location

Lucciana, Haute-Corse

Serving
Bastia
Elevation
26 ft
Coordinates
42° 33' 9" N , 9° 29' 1" E
KCC
Airport BS
Bird Strike
Metar
Observation
LFKB 012230Z AUTO 22007KT 9999 BKN037 OVC058 09/04 Q1016 NOSIG
Station
Bastia
Date/Time
2022-12-01 22:30:00
Wind direction
220°
Wind speed
07 kts
Lowest cloud amount
broken clouds
Temperature
9°C
Dew point
4°C
Humidity
70%
QNH
1016 hPa
Weather condition
n/a

Description

International airport serving northern Corsica.

Climatology

Dry-summer subtropical ”Mediterranean" climate (Köppen climate classification Csa) - characterized by hot, dry summers and mild winters. During the summer, subtropical high pressure cells dominate, making rainfall unlikely except for the occasional thunderstorm. In the winter, periodic storms bring rain (snow at higher elevations).

Runways

Designator Length Width Surface Rops
16/34 2519 45 ASP Yes/Yes

Airport map

Aerial View

SKYbrary Partners:

Safety knowledge contributed by: